sensor_id;sensor_type;location;lat;lon;timestamp;P1;P2;P0
72918;PMS7003;61063;55.700;26.994;2023-01-08T00:00:02;5.4;3;1.9
72918;PMS7003;61063;55.700;26.994;2023-01-08T00:05:14;5.2;2.6;1.7
72918;PMS7003;61063;55.700;26.994;2023-01-08T00:10:12;4.7;2.4;1.5
72918;PMS7003;61063;55.700;26.994;2023-01-08T00:15:14;5.6;3.2;1.8
72918;PMS7003;61063;55.700;26.994;2023-01-08T00:20:02;5.6;3.2;1.8
72918;PMS7003;61063;55.700;26.994;2023-01-08T00:25:02;4.5;2;1.4
72918;PMS7003;61063;55.700;26.994;2023-01-08T00:30:24;4.2;1.9;1.3
72918;PMS7003;61063;55.700;26.994;2023-01-08T00:35:24;4.7;2.6;1.8
72918;PMS7003;61063;55.700;26.994;2023-01-08T00:40:22;4.6;3.2;2.1
72918;PMS7003;61063;55.700;26.994;2023-01-08T00:45:00;4.6;3.2;2.1
72918;PMS7003;61063;55.700;26.994;2023-01-08T00:50:02;6.6;3.1;2.2
72918;PMS7003;61063;55.700;26.994;2023-01-08T00:55:14;4.5;2.7;1.8
72918;PMS7003;61063;55.700;26.994;2023-01-08T01:00:22;5.3;3.7;2.7
72918;PMS7003;61063;55.700;26.994;2023-01-08T01:04:52;5.3;3.7;2.7
72918;PMS7003;61063;55.700;26.994;2023-01-08T01:10:13;4.9;3.3;2.2
72918;PMS7003;61063;55.700;26.994;2023-01-08T01:15:15;4.3;2.9;2.2
72918;PMS7003;61063;55.700;26.994;2023-01-08T01:20:24;5.5;2.6;1.8
72918;PMS7003;61063;55.700;26.994;2023-01-08T01:25:22;5.6;2.9;2
72918;PMS7003;61063;55.700;26.994;2023-01-08T01:30:00;5.6;2.9;2
72918;PMS7003;61063;55.700;26.994;2023-01-08T01:35:24;5.5;3.2;2.4
72918;PMS7003;61063;55.700;26.994;2023-01-08T01:40:22;4.8;2.6;1.6
72918;PMS7003;61063;55.700;26.994;2023-01-08T01:45:02;4.8;2.6;1.6
72918;PMS7003;61063;55.700;26.994;2023-01-08T01:50:25;4.6;2.8;1.7
72918;PMS7003;61063;55.700;26.994;2023-01-08T01:54:50;4.6;2.8;1.7
72918;PMS7003;61063;55.700;26.994;2023-01-08T02:00:05;6.1;3.7;2.5
72918;PMS7003;61063;55.700;26.994;2023-01-08T02:05:12;4.7;3.7;2.7
72918;PMS7003;61063;55.700;26.994;2023-01-08T02:10:02;4.7;3.7;2.7
72918;PMS7003;61063;55.700;26.994;2023-01-08T02:15:12;5.9;3.6;2.3
72918;PMS7003;61063;55.700;26.994;2023-01-08T02:20:05;4.8;3.2;2.1
72918;PMS7003;61063;55.700;26.994;2023-01-08T02:25:06;5.1;3.5;2.1
72918;PMS7003;61063;55.700;26.994;2023-01-08T02:29:52;5.9;3.5;2.2
72918;PMS7003;61063;55.700;26.994;2023-01-08T02:35:16;5.8;3.1;2.3
72918;PMS7003;61063;55.700;26.994;2023-01-08T02:40:27;8.8;4.6;3.3
72918;PMS7003;61063;55.700;26.994;2023-01-08T02:45:31;5.5;4.1;3
72918;PMS7003;61063;55.700;26.994;2023-01-08T02:50:17;5.2;4;2.8
72918;PMS7003;61063;55.700;26.994;2023-01-08T02:55:18;5.7;3.8;2.7
72918;PMS7003;61063;55.700;26.994;2023-01-08T02:59:54;5.7;3.8;2.7
72918;PMS7003;61063;55.700;26.994;2023-01-08T03:05:28;5.7;4.1;2.8
72918;PMS7003;61063;55.700;26.994;2023-01-08T03:10:02;5.7;4.1;2.8
72918;PMS7003;61063;55.700;26.994;2023-01-08T03:15:27;4.4;2.9;2
72918;PMS7003;61063;55.700;26.994;2023-01-08T03:19:52;4.4;2.9;2
72918;PMS7003;61063;55.700;26.994;2023-01-08T03:24:50;6;3.9;2.7
72918;PMS7003;61063;55.700;26.994;2023-01-08T03:30:24;6.1;3.7;2.5
72918;PMS7003;61063;55.700;26.994;2023-01-08T03:34:40;6.1;3.7;2.5
72918;PMS7003;61063;55.700;26.994;2023-01-08T03:40:17;6;4;2.6
72918;PMS7003;61063;55.700;26.994;2023-01-08T03:45:14;6.3;4.3;3.2
72918;PMS7003;61063;55.700;26.994;2023-01-08T03:49:42;6.3;4.3;3.2
72918;PMS7003;61063;55.700;26.994;2023-01-08T03:55:26;5.8;4.4;3
72918;PMS7003;61063;55.700;26.994;2023-01-08T04:00:06;5.8;4.4;3
72918;PMS7003;61063;55.700;26.994;2023-01-08T04:05:04;7.9;4.2;3.3
72918;PMS7003;61063;55.700;26.994;2023-01-08T04:09:54;6.6;4.5;3.2
72918;PMS7003;61063;55.700;26.994;2023-01-08T04:15:16;5.5;3.2;2
72918;PMS7003;61063;55.700;26.994;2023-01-08T04:20:28;7.1;4.4;2.9
72918;PMS7003;61063;55.700;26.994;2023-01-08T04:24:56;7.1;4.4;2.9
72918;PMS7003;61063;55.700;26.994;2023-01-08T04:30:16;6.9;4.9;3.6
72918;PMS7003;61063;55.700;26.994;2023-01-08T04:35:28;6.7;4.8;3.4
72918;PMS7003;61063;55.700;26.994;2023-01-08T04:40:26;7.5;4.4;3.2
72918;PMS7003;61063;55.700;26.994;2023-01-08T04:45:26;5.8;4.3;3.1
72918;PMS7003;61063;55.700;26.994;2023-01-08T04:50:06;5.8;4.3;3.1
72918;PMS7003;61063;55.700;26.994;2023-01-08T04:54:54;6.1;3.8;2.9
72918;PMS7003;61063;55.700;26.994;2023-01-08T04:59:52;6.2;4.7;3.3
72918;PMS7003;61063;55.700;26.994;2023-01-08T05:05:18;7.6;4.7;3.4
72918;PMS7003;61063;55.700;26.994;2023-01-08T05:10:24;7.7;4.8;3.2
72918;PMS7003;61063;55.700;26.994;2023-01-08T05:14:40;7.7;4.8;3.2
72918;PMS7003;61063;55.700;26.994;2023-01-08T05:20:06;6.9;5;3.7
72918;PMS7003;61063;55.700;26.994;2023-01-08T05:25:18;7.5;5.6;4.1
72918;PMS7003;61063;55.700;26.994;2023-01-08T05:30:16;6.3;4.7;3.5
72918;PMS7003;61063;55.700;26.994;2023-01-08T05:35:24;7.9;5.5;4
72918;PMS7003;61063;55.700;26.994;2023-01-08T05:40:14;7.7;5.5;4.2
72918;PMS7003;61063;55.700;26.994;2023-01-08T05:45:02;7.7;5.5;4.2
72918;PMS7003;61063;55.700;26.994;2023-01-08T05:50:26;8.6;4.7;3.2
72918;PMS7003;61063;55.700;26.994;2023-01-08T05:55:28;8.6;5.6;4.1
72918;PMS7003;61063;55.700;26.994;2023-01-08T06:00:28;8.9;5.9;4.1
72918;PMS7003;61063;55.700;26.994;2023-01-08T06:05:06;8.9;5.9;4.1
72918;PMS7003;61063;55.700;26.994;2023-01-08T06:10:14;7.2;4.5;3.1
72918;PMS7003;61063;55.700;26.994;2023-01-08T06:14:54;7.2;4.5;3.1
72918;PMS7003;61063;55.700;26.994;2023-01-08T06:20:26;6.5;4.9;3.4
72918;PMS7003;61063;55.700;26.994;2023-01-08T06:25:26;6.9;5.5;3.8
72918;PMS7003;61063;55.700;26.994;2023-01-08T06:30:28;7.4;5.1;3.3
72918;PMS7003;61063;55.700;26.994;2023-01-08T06:34:42;7.4;5.1;3.3
72918;PMS7003;61063;55.700;26.994;2023-01-08T06:40:26;8.9;6.2;4
72918;PMS7003;61063;55.700;26.994;2023-01-08T06:45:28;7.9;5;3.7
72918;PMS7003;61063;55.700;26.994;2023-01-08T06:50:28;8.3;5.7;3.8
72918;PMS7003;61063;55.700;26.994;2023-01-08T06:55:04;8.3;5.7;3.8
72918;PMS7003;61063;55.700;26.994;2023-01-08T07:00:18;7.6;5.6;4.1
72918;PMS7003;61063;55.700;26.994;2023-01-08T07:05:18;8.1;5.5;4.1
72918;PMS7003;61063;55.700;26.994;2023-01-08T07:10:14;8.2;5.6;4.1
72918;PMS7003;61063;55.700;26.994;2023-01-08T07:15:30;7.6;5.8;4
72918;PMS7003;61063;55.700;26.994;2023-01-08T07:19:56;7.6;5.8;4
72918;PMS7003;61063;55.700;26.994;2023-01-08T07:25:04;8.5;6.1;4
72918;PMS7003;61063;55.700;26.994;2023-01-08T07:30:28;8.4;6.9;4.5
72918;PMS7003;61063;55.700;26.994;2023-01-08T07:35:28;9.6;6.1;3.9
72918;PMS7003;61063;55.700;26.994;2023-01-08T07:40:26;7.3;6;4.4
72918;PMS7003;61063;55.700;26.994;2023-01-08T07:44:42;7.3;6;4.4
72918;PMS7003;61063;55.700;26.994;2023-01-08T07:50:18;9.8;7.6;5.4
72918;PMS7003;61063;55.700;26.994;2023-01-08T07:55:18;8.6;5.6;3.2
72918;PMS7003;61063;55.700;26.994;2023-01-08T08:00:28;8.7;5.7;4
72918;PMS7003;61063;55.700;26.994;2023-01-08T08:05:26;9.5;5.9;4.1
72918;PMS7003;61063;55.700;26.994;2023-01-08T08:10:03;9.5;5.9;4.1
72918;PMS7003;61063;55.700;26.994;2023-01-08T08:14:52;11.3;7.7;5.1
72918;PMS7003;61063;55.700;26.994;2023-01-08T08:20:28;9.1;6.5;4.5
72918;PMS7003;61063;55.700;26.994;2023-01-08T08:25:28;9.8;7;5.1
72918;PMS7003;61063;55.700;26.994;2023-01-08T08:30:27;8.1;5.5;3.7
72918;PMS7003;61063;55.700;26.994;2023-01-08T08:35:28;9.1;5.9;4.3
72918;PMS7003;61063;55.700;26.994;2023-01-08T08:40:16;8.8;6.2;4.8
72918;PMS7003;61063;55.700;26.994;2023-01-08T08:45:18;9.8;6.2;4.4
72918;PMS7003;61063;55.700;26.994;2023-01-08T08:50:24;9.8;6.7;4.6
72918;PMS7003;61063;55.700;26.994;2023-01-08T08:55:22;8.8;6.7;4.6
72918;PMS7003;61063;55.700;26.994;2023-01-08T09:00:28;9.7;6.7;4.9
72918;PMS7003;61063;55.700;26.994;2023-01-08T09:05:04;9.7;6.7;4.9
72918;PMS7003;61063;55.700;26.994;2023-01-08T09:10:26;9.2;7.1;5.4
72918;PMS7003;61063;55.700;26.994;2023-01-08T09:15:24;11.7;9.1;6.6
72918;PMS7003;61063;55.700;26.994;2023-01-08T09:20:26;8.1;6.2;4.1
72918;PMS7003;61063;55.700;26.994;2023-01-08T09:24:42;8.1;6.2;4.1
72918;PMS7003;61063;55.700;26.994;2023-01-08T09:30:16;9.3;5.8;4.1
72918;PMS7003;61063;55.700;26.994;2023-01-08T09:35:16;10;7.3;5.1
72918;PMS7003;61063;55.700;26.994;2023-01-08T09:40:25;7.2;5.9;3.5
72918;PMS7003;61063;55.700;26.994;2023-01-08T09:45:29;11.5;7.8;5.7
72918;PMS7003;61063;55.700;26.994;2023-01-08T09:50:05;11.5;7.8;5.7
72918;PMS7003;61063;55.700;26.994;2023-01-08T09:54:50;9.5;7.4;5
72918;PMS7003;61063;55.700;26.994;2023-01-08T10:00:27;9.3;7.4;5.3
72918;PMS7003;61063;55.700;26.994;2023-01-08T10:05:09;9.3;7.4;5.3
72918;PMS7003;61063;55.700;26.994;2023-01-08T10:09:58;10.5;7.1;5.2
72918;PMS7003;61063;55.700;26.994;2023-01-08T10:14:50;9.9;7;4.6
72918;PMS7003;61063;55.700;26.994;2023-01-08T10:20:23;11.1;7.8;5.8
72918;PMS7003;61063;55.700;26.994;2023-01-08T10:24:52;11.1;7.8;5.8
72918;PMS7003;61063;55.700;26.994;2023-01-08T10:30:04;12.4;9.3;6.3
72918;PMS7003;61063;55.700;26.994;2023-01-08T10:34:52;7.3;4.4;2.9
72918;PMS7003;61063;55.700;26.994;2023-01-08T10:39:50;9.6;7.1;5.2
72918;PMS7003;61063;55.700;26.994;2023-01-08T10:45:23;9.5;6.9;4.9
72918;PMS7003;61063;55.700;26.994;2023-01-08T10:49:50;9.5;6.9;4.9
72918;PMS7003;61063;55.700;26.994;2023-01-08T10:54:40;9.6;7.3;5.4
72918;PMS7003;61063;55.700;26.994;2023-01-08T11:00:02;9.2;7.1;5
72918;PMS7003;61063;55.700;26.994;2023-01-08T11:05:28;11.1;7.9;5.6
72918;PMS7003;61063;55.700;26.994;2023-01-08T11:10:19;11.1;7.9;5.6
72918;PMS7003;61063;55.700;26.994;2023-01-08T11:15:22;11.8;8.3;5.9
72918;PMS7003;61063;55.700;26.994;2023-01-08T11:20:18;8.8;7;4.9
72918;PMS7003;61063;55.700;26.994;2023-01-08T11:25:04;8.8;7;4.9
72918;PMS7003;61063;55.700;26.994;2023-01-08T11:30:28;10.5;7.1;4.7
72918;PMS7003;61063;55.700;26.994;2023-01-08T11:35:30;9.3;6.3;4.9
72918;PMS7003;61063;55.700;26.994;2023-01-08T11:40:09;9.3;6.3;4.9
72918;PMS7003;61063;55.700;26.994;2023-01-08T11:45:09;9.1;6.9;4.9
72918;PMS7003;61063;55.700;26.994;2023-01-08T11:49:59;11.3;8.3;6.1
72918;PMS7003;61063;55.700;26.994;2023-01-08T11:54:55;9.6;6.7;4.4
72918;PMS7003;61063;55.700;26.994;2023-01-08T12:00:30;10.8;8;5.1
72918;PMS7003;61063;55.700;26.994;2023-01-08T12:05:21;11.9;8.8;6.1
72918;PMS7003;61063;55.700;26.994;2023-01-08T12:10:17;10.6;7.7;5.9
72918;PMS7003;61063;55.700;26.994;2023-01-08T12:15:25;9.8;7.2;4.7
72918;PMS7003;61063;55.700;26.994;2023-01-08T12:20:25;11;8.5;6.1
72918;PMS7003;61063;55.700;26.994;2023-01-08T12:25:26;12.1;9;6.5
72918;PMS7003;61063;55.700;26.994;2023-01-08T12:30:30;11.8;8.2;5.5
72918;PMS7003;61063;55.700;26.994;2023-01-08T12:35:06;11.8;8.2;5.5
72918;PMS7003;61063;55.700;26.994;2023-01-08T12:40:11;9.7;7.2;5.6
72918;PMS7003;61063;55.700;26.994;2023-01-08T12:45:27;11.2;8.6;6.3
72918;PMS7003;61063;55.700;26.994;2023-01-08T12:50:29;11.3;9;6.9
72918;PMS7003;61063;55.700;26.994;2023-01-08T12:55:19;11.2;8.4;6
72918;PMS7003;61063;55.700;26.994;2023-01-08T13:00:08;11.2;8.4;6
72918;PMS7003;61063;55.700;26.994;2023-01-08T13:04:56;10;7.6;5.6
72918;PMS7003;61063;55.700;26.994;2023-01-08T13:10:06;10.1;7.2;5.2
72918;PMS7003;61063;55.700;26.994;2023-01-08T13:15:25;9.1;7;5.5
72918;PMS7003;61063;55.700;26.994;2023-01-08T13:19:43;9.1;7;5.5
72918;PMS7003;61063;55.700;26.994;2023-01-08T13:25:25;10.5;7.8;5.9
72918;PMS7003;61063;55.700;26.994;2023-01-08T13:30:28;9.4;6;4.4
72918;PMS7003;61063;55.700;26.994;2023-01-08T13:35:26;10.4;8;5.8
72918;PMS7003;61063;55.700;26.994;2023-01-08T13:40:37;9.5;7.1;5
72918;PMS7003;61063;55.700;26.994;2023-01-08T13:45:12;11;7.9;5.5
72918;PMS7003;61063;55.700;26.994;2023-01-08T13:50:24;10.3;7.4;5.3
72918;PMS7003;61063;55.700;26.994;2023-01-08T13:54:54;10.3;7.4;5.3
72918;PMS7003;61063;55.700;26.994;2023-01-08T14:00:27;11.7;9.1;6.7
72918;PMS7003;61063;55.700;26.994;2023-01-08T14:05:25;11.4;8.5;6.3
72918;PMS7003;61063;55.700;26.994;2023-01-08T14:10:06;11.4;8.5;6.3
72918;PMS7003;61063;55.700;26.994;2023-01-08T14:14:55;9.3;6.1;4.3
72918;PMS7003;61063;55.700;26.994;2023-01-08T14:20:07;11.9;8.4;5.9
72918;PMS7003;61063;55.700;26.994;2023-01-08T14:24:53;12.5;9.8;6.9
72918;PMS7003;61063;55.700;26.994;2023-01-08T14:30:13;14.9;10.7;6.9
72918;PMS7003;61063;55.700;26.994;2023-01-08T14:35:14;12.6;9.8;6.4
72918;PMS7003;61063;55.700;26.994;2023-01-08T14:40:23;13.3;10;7.2
72918;PMS7003;61063;55.700;26.994;2023-01-08T14:45:05;13.3;10;7.2
72918;PMS7003;61063;55.700;26.994;2023-01-08T14:50:16;12.7;9.8;7.5
72918;PMS7003;61063;55.700;26.994;2023-01-08T14:55:04;12.7;9.8;7.5
72918;PMS7003;61063;55.700;26.994;2023-01-08T14:59:55;12.9;10.6;7.6
72918;PMS7003;61063;55.700;26.994;2023-01-08T15:05:12;12.1;8.6;6.5
72918;PMS7003;61063;55.700;26.994;2023-01-08T15:10:02;10.6;7.4;5.1
72918;PMS7003;61063;55.700;26.994;2023-01-08T15:15:22;12.8;9.4;6.7
72918;PMS7003;61063;55.700;26.994;2023-01-08T15:20:14;12.8;9.4;6.7
72918;PMS7003;61063;55.700;26.994;2023-01-08T15:25:18;10.6;7.6;5.2
72918;PMS7003;61063;55.700;26.994;2023-01-08T15:30:22;11.7;9.7;6.5
72918;PMS7003;61063;55.700;26.994;2023-01-08T15:34:54;11.7;9.7;6.5
72918;PMS7003;61063;55.700;26.994;2023-01-08T15:40:25;12.7;10;7.4
72918;PMS7003;61063;55.700;26.994;2023-01-08T15:45:25;10.4;7.8;5.9
72918;PMS7003;61063;55.700;26.994;2023-01-08T15:50:26;14;9.6;6.7
72918;PMS7003;61063;55.700;26.994;2023-01-08T15:55:09;14;9.6;6.7
72918;PMS7003;61063;55.700;26.994;2023-01-08T16:00:07;12.3;9.8;6.9
72918;PMS7003;61063;55.700;26.994;2023-01-08T16:05:27;12.5;9.1;6.7
72918;PMS7003;61063;55.700;26.994;2023-01-08T16:10:22;11.5;9.5;6.7
72918;PMS7003;61063;55.700;26.994;2023-01-08T16:15:13;11.6;9.3;6.8
72918;PMS7003;61063;55.700;26.994;2023-01-08T16:20:14;12.8;9.2;6.7
72918;PMS7003;61063;55.700;26.994;2023-01-08T16:24:56;12.8;9.2;6.7
72918;PMS7003;61063;55.700;26.994;2023-01-08T16:30:14;12.2;10.1;7.4
72918;PMS7003;61063;55.700;26.994;2023-01-08T16:35:26;13.3;10.1;7.1
72918;PMS7003;61063;55.700;26.994;2023-01-08T16:39:54;13.3;10.1;7.1
72918;PMS7003;61063;55.700;26.994;2023-01-08T16:44:52;13.5;10.2;7.2
72918;PMS7003;61063;55.700;26.994;2023-01-08T16:50:07;13.2;10;7.6
72918;PMS7003;61063;55.700;26.994;2023-01-08T16:55:26;12.8;9.1;5.9
72918;PMS7003;61063;55.700;26.994;2023-01-08T17:00:26;12;9.2;6.4
72918;PMS7003;61063;55.700;26.994;2023-01-08T17:05:16;12.2;8.9;6.6
72918;PMS7003;61063;55.700;26.994;2023-01-08T17:10:12;10.9;8.1;6.1
72918;PMS7003;61063;55.700;26.994;2023-01-08T17:15:24;10.8;8.6;6.4
72918;PMS7003;61063;55.700;26.994;2023-01-08T17:20:24;11.1;7.7;5.4
72918;PMS7003;61063;55.700;26.994;2023-01-08T17:25:25;10.2;8.4;6
72918;PMS7003;61063;55.700;26.994;2023-01-08T17:29:52;10.2;8.4;6
72918;PMS7003;61063;55.700;26.994;2023-01-08T17:35:02;11.1;8.5;6
72918;PMS7003;61063;55.700;26.994;2023-01-08T17:40:02;10.4;8;5.7
72918;PMS7003;61063;55.700;26.994;2023-01-08T17:45:24;10.9;8.6;6
72918;PMS7003;61063;55.700;26.994;2023-01-08T17:50:24;11.4;8.6;5.9
72918;PMS7003;61063;55.700;26.994;2023-01-08T17:55:02;11.4;8.6;5.9
72918;PMS7003;61063;55.700;26.994;2023-01-08T18:00:17;10.9;8.2;5.8
72918;PMS7003;61063;55.700;26.994;2023-01-08T18:04:54;10.9;8.2;5.8
72918;PMS7003;61063;55.700;26.994;2023-01-08T18:10:26;8.9;6.7;4.8
72918;PMS7003;61063;55.700;26.994;2023-01-08T18:15:24;11.2;8.4;6
72918;PMS7003;61063;55.700;26.994;2023-01-08T18:19:42;11.2;8.4;6
72918;PMS7003;61063;55.700;26.994;2023-01-08T18:24:50;11;8.5;6.2
72918;PMS7003;61063;55.700;26.994;2023-01-08T18:29:48;9.5;6.6;4.9
72918;PMS7003;61063;55.700;26.994;2023-01-08T18:35:18;9;7.7;5.5
72918;PMS7003;61063;55.700;26.994;2023-01-08T18:40:20;10.8;8.6;5.9
72918;PMS7003;61063;55.700;26.994;2023-01-08T18:45:16;11.7;7.9;5.6
72918;PMS7003;61063;55.700;26.994;2023-01-08T18:50:14;9.9;8;6.1
72918;PMS7003;61063;55.700;26.994;2023-01-08T18:54:42;9.9;8;6.1
72918;PMS7003;61063;55.700;26.994;2023-01-08T19:00:26;8.6;6.7;4.8
72918;PMS7003;61063;55.700;26.994;2023-01-08T19:05:22;8.9;7.2;5.4
72918;PMS7003;61063;55.700;26.994;2023-01-08T19:09:40;8.9;7.2;5.4
72918;PMS7003;61063;55.700;26.994;2023-01-08T19:15:02;11.5;8.2;5.9
72918;PMS7003;61063;55.700;26.994;2023-01-08T19:20:22;10.5;7.8;5.6
72918;PMS7003;61063;55.700;26.994;2023-01-08T19:25:24;10.4;8;5.7
72918;PMS7003;61063;55.700;26.994;2023-01-08T19:29:54;10.4;8;5.7
72918;PMS7003;61063;55.700;26.994;2023-01-08T19:35:14;9.6;8.1;5.8
72918;PMS7003;61063;55.700;26.994;2023-01-08T19:40:05;9.6;8.1;5.8
72918;PMS7003;61063;55.700;26.994;2023-01-08T19:44:50;8.4;5.5;3.5
72918;PMS7003;61063;55.700;26.994;2023-01-08T19:50:02;9.4;7.7;5.4
72918;PMS7003;61063;55.700;26.994;2023-01-08T19:55:12;10;7.5;5.5
72918;PMS7003;61063;55.700;26.994;2023-01-08T20:00:24;9.8;8.2;6.2
72918;PMS7003;61063;55.700;26.994;2023-01-08T20:05:26;9.3;7.1;5.4
72918;PMS7003;61063;55.700;26.994;2023-01-08T20:10:20;10.2;7.9;6.1
72918;PMS7003;61063;55.700;26.994;2023-01-08T20:15:22;9.5;7.4;5.5
72918;PMS7003;61063;55.700;26.994;2023-01-08T20:19:50;9.5;7.4;5.5
72918;PMS7003;61063;55.700;26.994;2023-01-08T20:24:56;10.7;8;6
72918;PMS7003;61063;55.700;26.994;2023-01-08T20:30:05;9.4;7;5.3
72918;PMS7003;61063;55.700;26.994;2023-01-08T20:34:54;9.5;6.6;5
72918;PMS7003;61063;55.700;26.994;2023-01-08T20:40:12;8.6;6.3;4.9
72918;PMS7003;61063;55.700;26.994;2023-01-08T20:45:12;8.4;6.5;5.1
72918;PMS7003;61063;55.700;26.994;2023-01-08T20:50:24;8.6;6.8;4.9
72918;PMS7003;61063;55.700;26.994;2023-01-08T20:54:42;8.6;6.8;4.9
72918;PMS7003;61063;55.700;26.994;2023-01-08T21:00:14;8.9;6.3;4.9
72918;PMS7003;61063;55.700;26.994;2023-01-08T21:05:24;10;6.9;5.1
72918;PMS7003;61063;55.700;26.994;2023-01-08T21:10:18;8.5;6.4;4.7
72918;PMS7003;61063;55.700;26.994;2023-01-08T21:15:05;8.5;6.4;4.7
72918;PMS7003;61063;55.700;26.994;2023-01-08T21:20:07;10.3;7.1;5.2
72918;PMS7003;61063;55.700;26.994;2023-01-08T21:25:28;8.4;5.9;4
72918;PMS7003;61063;55.700;26.994;2023-01-08T21:30:18;9.6;7.2;5.1
72918;PMS7003;61063;55.700;26.994;2023-01-08T21:35:16;9.9;7;5.1
72918;PMS7003;61063;55.700;26.994;2023-01-08T21:40:26;10.1;7.4;5.9
72918;PMS7003;61063;55.700;26.994;2023-01-08T21:45:28;8.3;6;4.6
72918;PMS7003;61063;55.700;26.994;2023-01-08T21:50:14;9.4;7;5.1
72918;PMS7003;61063;55.700;26.994;2023-01-08T21:54:54;9.4;7;5.1
72918;PMS7003;61063;55.700;26.994;2023-01-08T21:59:42;10;8;5.5
72918;PMS7003;61063;55.700;26.994;2023-01-08T22:05:18;9.2;7.2;5.4
72918;PMS7003;61063;55.700;26.994;2023-01-08T22:09:52;9.2;7.2;5.4
72918;PMS7003;61063;55.700;26.994;2023-01-08T22:15:28;10.4;7.5;5.7
72918;PMS7003;61063;55.700;26.994;2023-01-08T22:20:16;10.6;8.2;5.9
72918;PMS7003;61063;55.700;26.994;2023-01-08T22:25:16;10;7.6;5.7
72918;PMS7003;61063;55.700;26.994;2023-01-08T22:29:52;10;7.6;5.7
72918;PMS7003;61063;55.700;26.994;2023-01-08T22:35:04;10.5;7.8;5.9
72918;PMS7003;61063;55.700;26.994;2023-01-08T22:40:14;9.1;7.3;5.1
72918;PMS7003;61063;55.700;26.994;2023-01-08T22:45:24;10.7;7.5;5.3
72918;PMS7003;61063;55.700;26.994;2023-01-08T22:49:54;10.7;7.5;5.3
72918;PMS7003;61063;55.700;26.994;2023-01-08T22:55:16;9.4;7.4;5.2
72918;PMS7003;61063;55.700;26.994;2023-01-08T23:00:03;9.4;7.4;5.2
72918;PMS7003;61063;55.700;26.994;2023-01-08T23:05:26;9.1;6.7;5.3
72918;PMS7003;61063;55.700;26.994;2023-01-08T23:10:23;9.6;7.1;5.6
72918;PMS7003;61063;55.700;26.994;2023-01-08T23:15:12;10.7;8.1;6
72918;PMS7003;61063;55.700;26.994;2023-01-08T23:20:24;9.5;7;5.2
72918;PMS7003;61063;55.700;26.994;2023-01-08T23:25:24;8.6;6.8;4.7
72918;PMS7003;61063;55.700;26.994;2023-01-08T23:30:24;9;6.1;4.7
72918;PMS7003;61063;55.700;26.994;2023-01-08T23:35:22;8.1;5.8;4.6
72918;PMS7003;61063;55.700;26.994;2023-01-08T23:40:00;8.1;5.8;4.6
72918;PMS7003;61063;55.700;26.994;2023-01-08T23:45:14;11.5;7.6;5.1
72918;PMS7003;61063;55.700;26.994;2023-01-08T23:49:52;11.5;7.6;5.1
72918;PMS7003;61063;55.700;26.994;2023-01-08T23:54:50;9.1;7;4.9
